Palmer, AK (99645)

3:51 AM AKDT on August 28, 2014 (GMT -0800)
Gold-Key Estates | Change Station
CLOSE
Current Station
Personal Weather Station
Location: Palmer, AK
Elevation: 203 ft
Nearby Weather Stations

Elev 203 ft 61.62 °N, 149.10 °W | Updated 12 minutes ago

Scattered Clouds
Scattered Clouds
50.2 °F
Feels Like 50.2 °F
N
3.2
Wind Variable Wind from NE

Today
High -- | Low -- °F
--% Chance of Precip.
Yesterday
High -- | Low -- °F
Precip. -- in
6:37 AM 9:16 PM
Waxing Crescent, 8% visible
Pressure 29.73 in
Visibility 10.0 miles
Clouds Scattered Clouds 12000 ft
Dew Point 48 °F
Humidity 93%
Rainfall 0.00 in
Snow Depth Not available.
UV 0 out of 12
Pollen Not available.
Air Quality Not available.
Flu Activity Not available.
METAR PAAQ 281053Z AUTO 06008KT 10SM SCT120 11/06 A2972 RMK AO2 SLP067 T01110056 TSNO

More Conditions Fewer Conditions

Pressure 29.73 in
Visibility 10.0 miles
Clouds Scattered Clouds 12000 ft
Dew Point 48 °F
Humidity 93%
Rainfall 0.00 in
Snow Depth Not available.
UV 0 out of 12
Pollen Not available.
Air Quality Not available.
Flu Activity Not available.
METAR PAAQ 281053Z AUTO 06008KT 10SM SCT120 11/06 A2972 RMK AO2 SLP067 T01110056 TSNO

More Conditions Fewer Conditions

10-Day Weather Forecast

Almanac

Astronomy

Aug. 28, 2014 Rise Set
Actual Time 6:37 AM AKDT 9:16 PM AKDT
Civil Twilight 5:47 AM AKDT 10:05 PM AKDT
Nautical Twilight 4:40 AM AKDT 11:11 PM AKDT
Astronomical Twilight 2:49 AM AKDT 12:54 AM AKDT
Moon 10:43 AM AKDT 9:35 PM AKDT
Length of Visible Light 16h 17m
Length of Day
14h 38m
Tomorrow will be 5m 45s shorter.
Waxing Crescent, 8% of the Moon is Illuminated
Today
Waxing Crescent
Sep 2
First Quarter
Sep 8
Full
Sep 15
Last Quarter
Sep 24
New

Today's Extremes

State Highs State Lows

Community

WunderPhotos

Upload Photos

1,747,929 photos uploaded!

Nearby

Snow Depth

Station Depth Elevation
Point Mackenzie 1 in 200 ft
Indian Pass 2 in 2300 ft
Susitna Valley High 109 in 375 ft
Moraine 0 in 2100 ft
Turnagain Pass 2 in 1880 ft

Earthquake Activity

City Distance Mag. Time & Date
No recent earthquake activity has been reported nearby.
Minimum magnitude displayed is 2.5.

Coastal Water Temperatures

Place Temperature
No Stations Reporting

Nearby Weather Stations